Time;durP1;ratioP1;P1;durP2;ratioP2;P2;SDS_P1;SDS_P2;PMS_P1;PMS_P2;Temp;Humidity;BMP_temperature;BMP_pressure;BME280_temperature;BME280_humidity;BME280_pressure;Samples;Min_cycle;Max_cycle;Signal;HPM_P1;HPM_P2
2021/06/12 00:00:58;;;;;;;25.17;17.30;;;12.90;99.90;;;;;;5177391;27;20218;-68
2021/06/12 00:03:45;;;;;;;23.87;16.00;;;12.90;99.90;;;;;;5175977;27;20205;-68
2021/06/12 00:06:33;;;;;;;24.80;16.47;;;12.90;99.90;;;;;;5177187;27;20204;-68
2021/06/12 00:09:20;;;;;;;25.93;16.37;;;12.90;99.90;;;;;;5176292;27;20242;-68
2021/06/12 00:12:09;;;;;;;28.53;19.40;;;12.90;99.90;;;;;;5174148;27;20203;-68
2021/06/12 00:14:56;;;;;;;25.90;17.33;;;12.80;99.90;;;;;;5176369;27;20203;-68
2021/06/12 00:17:43;;;;;;;25.47;17.33;;;12.90;99.90;;;;;;5176401;27;20256;-68
2021/06/12 00:20:32;;;;;;;35.53;20.63;;;12.80;99.90;;;;;;5176728;27;20277;-69
2021/06/12 00:23:19;;;;;;;34.50;21.20;;;12.90;99.90;;;;;;5175287;27;20194;-68
2021/06/12 00:26:06;;;;;;;32.50;21.53;;;12.90;99.90;;;;;;5175612;27;20635;-68
2021/06/12 00:28:54;;;;;;;33.47;21.10;;;12.90;99.90;;;;;;5175292;27;20211;-68
2021/06/12 00:31:41;;;;;;;31.73;20.60;;;12.90;99.90;;;;;;5168974;27;20199;-68
2021/06/12 00:34:29;;;;;;;34.77;19.53;;;12.90;99.90;;;;;;5176408;27;20195;-68
2021/06/12 00:37:16;;;;;;;30.47;20.10;;;12.80;99.90;;;;;;5175898;27;20275;-68
2021/06/12 00:40:03;;;;;;;29.53;19.00;;;12.80;99.90;;;;;;5175232;27;20268;-68
2021/06/12 00:42:51;;;;;;;24.13;18.03;;;12.80;99.90;;;;;;5175434;27;20190;-69
2021/06/12 00:45:45;;;;;;;41.93;20.10;;;12.80;99.90;;;;;;5175752;27;20205;-68
2021/06/12 00:48:32;;;;;;;36.03;20.43;;;12.80;99.90;;;;;;5176123;27;20303;-69
2021/06/12 00:51:21;;;;;;;32.43;20.33;;;12.80;99.90;;;;;;5174640;27;20192;-68
2021/06/12 00:54:08;;;;;;;30.87;20.47;;;12.80;99.90;;;;;;5175153;27;20266;-68
2021/06/12 00:56:55;;;;;;;31.20;20.20;;;12.80;99.90;;;;;;5174225;27;20220;-69
2021/06/12 00:59:42;;;;;;;29.83;18.90;;;12.70;99.90;;;;;;5175296;27;20191;-68
2021/06/12 01:02:30;;;;;;;30.43;20.83;;;12.70;99.90;;;;;;5173993;27;20584;-68
2021/06/12 01:05:22;;;;;;;28.80;19.43;;;12.80;99.90;;;;;;5156752;27;20193;-68
2021/06/12 01:08:09;;;;;;;30.97;21.13;;;12.70;99.90;;;;;;5173568;27;20214;-69
2021/06/12 01:10:56;;;;;;;32.70;21.67;;;12.70;99.90;;;;;;5169376;27;20193;-68
2021/06/12 01:13:49;;;;;;;35.87;22.10;;;12.70;99.90;;;;;;5174282;27;20226;-68
2021/06/12 01:16:39;;;;;;;35.53;23.13;;;12.70;99.90;;;;;;5174688;27;20207;-68
2021/06/12 01:19:49;;;;;;;31.87;19.70;;;12.70;99.90;;;;;;5174925;27;20186;-68
2021/06/12 01:23:01;;;;;;;31.83;21.67;;;12.60;99.90;;;;;;5175333;27;20273;-68
2021/06/12 01:25:55;;;;;;;33.57;21.10;;;12.50;99.90;;;;;;5168645;27;20668;-68
2021/06/12 01:28:51;;;;;;;37.87;22.37;;;12.50;99.90;;;;;;5175294;27;20209;-68
2021/06/12 01:31:40;;;;;;;35.60;21.87;;;12.50;99.90;;;;;;5175594;27;20674;-68
2021/06/12 01:34:27;;;;;;;31.03;20.27;;;12.60;99.90;;;;;;5174707;27;20220;-69
2021/06/12 01:37:14;;;;;;;31.13;20.47;;;12.50;99.90;;;;;;5174850;27;20208;-68
2021/06/12 01:40:01;;;;;;;38.30;24.10;;;12.40;99.90;;;;;;5174987;27;20194;-68
2021/06/12 01:42:48;;;;;;;37.80;23.57;;;12.50;99.90;;;;;;5174172;27;20196;-69
2021/06/12 01:45:35;;;;;;;32.80;21.23;;;12.50;99.90;;;;;;5174626;27;20204;-69
2021/06/12 01:48:23;;;;;;;31.13;21.03;;;12.50;99.90;;;;;;5174331;27;20295;-68
2021/06/12 01:51:10;;;;;;;33.97;21.80;;;12.40;99.90;;;;;;5173948;27;20195;-69
2021/06/12 01:53:59;;;;;;;31.07;21.63;;;12.40;99.90;;;;;;5174596;27;20228;-69
2021/06/12 01:56:46;;;;;;;32.40;20.93;;;12.40;99.90;;;;;;5174001;27;20283;-69
2021/06/12 01:59:33;;;;;;;37.53;22.20;;;12.40;99.90;;;;;;5166496;27;20246;-68
2021/06/12 02:02:20;;;;;;;32.23;21.80;;;12.30;99.90;;;;;;5174705;27;20246;-69
2021/06/12 02:05:13;;;;;;;38.87;24.90;;;12.30;99.90;;;;;;5174622;27;20199;-69
2021/06/12 02:08:00;;;;;;;42.13;26.03;;;12.30;99.90;;;;;;5175164;27;20675;-69
2021/06/12 02:10:47;;;;;;;35.47;22.87;;;12.30;99.90;;;;;;5168387;27;20192;-69
2021/06/12 02:13:34;;;;;;;31.13;21.47;;;12.20;99.90;;;;;;5173910;27;20199;-69
2021/06/12 02:16:22;;;;;;;34.43;21.93;;;12.10;99.90;;;;;;5173930;27;20198;-69
2021/06/12 02:19:09;;;;;;;34.43;22.83;;;12.10;99.90;;;;;;5173907;27;20298;-69
2021/06/12 02:21:58;;;;;;;36.83;24.70;;;12.10;99.90;;;;;;5173936;27;20200;-69
2021/06/12 02:24:45;;;;;;;35.23;23.10;;;12.00;99.90;;;;;;5174178;27;20700;-68
2021/06/12 02:27:32;;;;;;;35.20;24.60;;;12.10;99.90;;;;;;5173895;27;20687;-68
2021/06/12 02:30:20;;;;;;;36.10;23.47;;;12.10;99.90;;;;;;5173127;27;20189;-68
2021/06/12 02:33:12;;;;;;;38.70;25.27;;;12.10;99.90;;;;;;5166308;27;20198;-68
2021/06/12 02:36:01;;;;;;;51.60;26.70;;;12.10;99.90;;;;;;5175521;27;20226;-68
2021/06/12 02:38:49;;;;;;;41.53;25.03;;;12.10;99.90;;;;;;5178217;27;20189;-68
2021/06/12 02:41:37;;;;;;;41.67;28.23;;;12.10;99.90;;;;;;5178060;27;20227;-68
2021/06/12 02:44:24;;;;;;;44.63;26.63;;;12.20;99.90;;;;;;5178087;27;20200;-69
2021/06/12 02:47:11;;;;;;;39.63;25.17;;;12.10;99.90;;;;;;5178277;27;20215;-68
2021/06/12 02:49:58;;;;;;;50.93;30.13;;;12.10;99.90;;;;;;5176301;27;20245;-68
2021/06/12 02:52:45;;;;;;;51.47;29.43;;;12.10;99.90;;;;;;5177397;27;20826;-68
2021/06/12 02:55:37;;;;;;;41.67;27.10;;;12.10;99.90;;;;;;5176533;27;20289;-68
2021/06/12 02:58:25;;;;;;;47.93;26.73;;;12.10;99.90;;;;;;5178226;27;20221;-68
2021/06/12 03:01:13;;;;;;;43.90;27.93;;;12.00;99.90;;;;;;5177221;27;20282;-69
2021/06/12 03:04:00;;;;;;;43.63;25.13;;;12.00;99.90;;;;;;5171563;27;20196;-69
2021/06/12 03:06:49;;;;;;;45.13;27.33;;;12.00;99.90;;;;;;5176974;27;20206;-69
2021/06/12 03:09:37;;;;;;;44.10;27.77;;;12.00;99.90;;;;;;5178241;27;20669;-68
2021/06/12 03:12:25;;;;;;;46.17;27.43;;;12.00;99.90;;;;;;5167922;27;20652;-68
2021/06/12 03:15:13;;;;;;;40.47;25.90;;;12.10;99.90;;;;;;5177668;27;20197;-68
2021/06/12 03:18:00;;;;;;;43.53;28.47;;;12.10;99.90;;;;;;5177442;27;20199;-68
2021/06/12 03:20:47;;;;;;;42.80;26.80;;;12.10;99.90;;;;;;5176533;27;20193;-68
2021/06/12 03:23:34;;;;;;;45.53;28.77;;;12.10;99.90;;;;;;5178132;27;20207;-68
2021/06/12 03:26:21;;;;;;;41.87;28.53;;;12.20;99.90;;;;;;5176804;27;20246;-68
2021/06/12 03:29:10;;;;;;;43.57;29.33;;;12.30;99.90;;;;;;5177733;27;20294;-68
2021/06/12 03:31:58;;;;;;;46.47;27.20;;;12.30;99.90;;;;;;5175720;27;20202;-68
2021/06/12 03:34:45;;;;;;;37.87;25.13;;;12.40;99.90;;;;;;5176414;27;20205;-68
2021/06/12 03:37:32;;;;;;;43.23;27.43;;;12.50;99.90;;;;;;5176143;27;20614;-68
2021/06/12 03:40:19;;;;;;;39.60;26.43;;;12.60;99.90;;;;;;5175907;27;20206;-68
2021/06/12 03:43:07;;;;;;;44.87;29.73;;;12.70;99.90;;;;;;5176981;27;20204;-68
2021/06/12 03:45:56;;;;;;;47.57;31.17;;;12.70;99.90;;;;;;5176740;27;20219;-68
2021/06/12 03:48:45;;;;;;;56.57;34.53;;;12.90;99.90;;;;;;5175556;27;20408;-68
2021/06/12 03:51:32;;;;;;;55.30;34.53;;;13.20;99.90;;;;;;5171086;27;20209;-68
2021/06/12 03:54:19;;;;;;;55.13;34.93;;;13.50;99.90;;;;;;5175766;27;20217;-69
2021/06/12 03:57:06;;;;;;;58.17;36.43;;;13.70;99.90;;;;;;5169896;27;20203;-69
2021/06/12 03:59:54;;;;;;;55.57;35.63;;;13.90;99.90;;;;;;5176128;27;20196;-68
2021/06/12 04:02:42;;;;;;;58.27;37.17;;;14.10;99.90;;;;;;5171465;27;20543;-68
2021/06/12 04:05:29;;;;;;;61.50;38.87;;;14.40;99.90;;;;;;5176133;27;20185;-68
2021/06/12 04:08:16;;;;;;;64.00;38.80;;;14.60;99.90;;;;;;5176766;27;20209;-68
2021/06/12 04:11:04;;;;;;;58.20;36.73;;;14.70;99.90;;;;;;5169216;27;20673;-68
2021/06/12 04:13:51;;;;;;;56.53;37.07;;;14.90;99.90;;;;;;5175892;27;20200;-69
2021/06/12 04:16:38;;;;;;;56.37;35.27;;;15.00;99.90;;;;;;5176108;27;20553;-68
2021/06/12 04:19:27;;;;;;;52.30;34.20;;;15.00;99.90;;;;;;5175742;27;20190;-68
2021/06/12 04:22:14;;;;;;;58.50;36.43;;;15.00;99.90;;;;;;5176918;27;20306;-68
2021/06/12 04:25:01;;;;;;;52.97;35.53;;;15.00;99.90;;;;;;5176076;27;20211;-68
2021/06/12 04:27:48;;;;;;;58.00;36.20;;;15.00;99.90;;;;;;5169714;27;20648;-68
2021/06/12 04:30:35;;;;;;;49.87;32.97;;;15.10;99.90;;;;;;5176019;27;20200;-69
2021/06/12 04:33:22;;;;;;;52.13;35.37;;;15.20;99.90;;;;;;5170186;27;20600;-68
2021/06/12 04:36:11;;;;;;;51.67;35.67;;;15.20;99.90;;;;;;5175404;27;20208;-68
2021/06/12 04:38:58;;;;;;;53.37;34.80;;;15.10;99.90;;;;;;5174739;27;20193;-68
2021/06/12 04:41:46;;;;;;;50.53;33.60;;;15.20;99.90;;;;;;5174581;27;20225;-68
2021/06/12 04:44:35;;;;;;;51.80;33.43;;;15.30;99.90;;;;;;5175414;27;20195;-68
2021/06/12 04:47:22;;;;;;;49.40;32.60;;;15.40;99.90;;;;;;5175527;27;20220;-69
2021/06/12 04:50:10;;;;;;;52.40;35.10;;;15.50;99.90;;;;;;5175613;27;20241;-68
2021/06/12 04:52:58;;;;;;;51.03;32.97;;;15.60;99.90;;;;;;5157709;27;20197;-68
2021/06/12 04:55:45;;;;;;;48.90;31.60;;;15.70;99.90;;;;;;5176102;27;20312;-68
2021/06/12 04:58:32;;;;;;;42.33;29.93;;;15.80;99.90;;;;;;5175625;27;20220;-68
2021/06/12 05:01:19;;;;;;;44.27;30.10;;;15.90;99.90;;;;;;5174750;27;20218;-68
2021/06/12 05:04:06;;;;;;;45.37;29.20;;;16.00;99.90;;;;;;5168905;27;20194;-68
2021/06/12 05:06:54;;;;;;;41.13;27.90;;;16.10;99.90;;;;;;5174725;27;20230;-68
2021/06/12 05:09:42;;;;;;;40.70;27.87;;;16.10;99.90;;;;;;5173891;27;20213;-68
2021/06/12 05:12:29;;;;;;;43.77;27.73;;;16.20;99.90;;;;;;5175721;27;20283;-68
2021/06/12 05:15:17;;;;;;;43.67;28.13;;;16.30;99.90;;;;;;5175572;27;20259;-68
2021/06/12 05:18:05;;;;;;;42.10;27.40;;;16.30;99.90;;;;;;5175624;27;20365;-67
2021/06/12 05:20:52;;;;;;;39.10;26.30;;;16.40;99.90;;;;;;5174411;27;20562;-67
2021/06/12 05:23:39;;;;;;;42.30;25.43;;;16.50;99.90;;;;;;5173710;27;20197;-66
2021/06/12 05:26:28;;;;;;;39.57;25.87;;;16.50;99.90;;;;;;5175083;27;20197;-66
2021/06/12 05:29:15;;;;;;;36.60;24.87;;;16.60;99.90;;;;;;5175268;27;20212;-66
2021/06/12 05:32:13;;;;;;;37.13;22.77;;;16.70;99.90;;;;;;5174327;27;20219;-66
2021/06/12 05:35:12;;;;;;;35.60;22.90;;;16.80;99.90;;;;;;5165447;27;20245;-66
2021/06/12 05:37:59;;;;;;;39.57;24.07;;;16.70;99.90;;;;;;5173617;27;20197;-66
2021/06/12 05:40:46;;;;;;;35.73;24.03;;;16.70;99.90;;;;;;5174607;27;20193;-66
2021/06/12 05:43:35;;;;;;;39.60;23.17;;;16.70;99.90;;;;;;5174076;27;20200;-66
2021/06/12 05:46:22;;;;;;;35.17;23.73;;;16.80;99.90;;;;;;5174466;27;20214;-66
2021/06/12 05:49:09;;;;;;;33.57;21.70;;;16.70;99.90;;;;;;5175259;27;20218;-66
2021/06/12 05:51:56;;;;;;;36.73;22.87;;;16.60;99.90;;;;;;5174668;27;20192;-66
2021/06/12 05:54:43;;;;;;;31.37;22.40;;;16.80;99.90;;;;;;5163705;27;20758;-66
2021/06/12 05:57:30;;;;;;;34.17;23.00;;;16.90;99.90;;;;;;5175441;27;20229;-66
2021/06/12 06:00:20;;;;;;;35.70;22.40;;;17.10;99.90;;;;;;5174499;27;20193;-66
2021/06/12 06:03:07;;;;;;;34.47;22.03;;;17.30;99.90;;;;;;5174292;27;20254;-66
2021/06/12 06:05:54;;;;;;;34.13;22.43;;;17.40;99.90;;;;;;5174328;27;20194;-66
2021/06/12 06:08:41;;;;;;;30.77;18.97;;;17.40;99.90;;;;;;5174078;27;20688;-66
2021/06/12 06:11:28;;;;;;;28.83;18.27;;;17.60;99.90;;;;;;5176770;27;20648;-66
2021/06/12 06:14:16;;;;;;;30.90;18.63;;;17.60;99.90;;;;;;5176611;27;20208;-66
2021/06/12 06:17:04;;;;;;;27.10;17.27;;;17.70;99.90;;;;;;5175767;27;20325;-69
2021/06/12 06:19:51;;;;;;;27.43;16.77;;;17.70;99.90;;;;;;5176970;27;20226;-69
2021/06/12 06:22:38;;;;;;;26.43;16.93;;;17.70;99.90;;;;;;5175928;27;20286;-69
2021/06/12 06:25:25;;;;;;;33.83;17.10;;;17.70;99.90;;;;;;5168294;27;20288;-70
2021/06/12 06:28:12;;;;;;;29.63;17.90;;;17.90;99.90;;;;;;5175807;27;20197;-70
2021/06/12 06:30:59;;;;;;;26.87;16.57;;;18.10;99.90;;;;;;5177917;27;20234;-69
2021/06/12 06:33:51;;;;;;;29.90;16.40;;;18.30;99.90;;;;;;5176316;27;20196;-69
2021/06/12 06:36:38;;;;;;;31.07;16.70;;;18.40;99.90;;;;;;5177215;27;20195;-70
2021/06/12 06:39:25;;;;;;;29.63;16.03;;;18.50;99.90;;;;;;5178363;27;20635;-70
2021/06/12 06:42:12;;;;;;;25.47;13.83;;;18.70;99.90;;;;;;5177336;27;20198;-70
2021/06/12 06:44:59;;;;;;;22.87;13.07;;;19.00;99.90;;;;;;5177730;27;20248;-69
2021/06/12 06:47:46;;;;;;;24.87;13.23;;;19.10;99.90;;;;;;5168892;27;20219;-69
2021/06/12 06:50:34;;;;;;;25.47;13.73;;;19.30;99.90;;;;;;5171239;27;20241;-69
2021/06/12 06:53:21;;;;;;;27.63;13.43;;;19.40;99.90;;;;;;5178523;27;20227;-70
2021/06/12 06:56:08;;;;;;;23.00;14.50;;;19.40;99.90;;;;;;5178537;27;20189;-69
2021/06/12 06:58:55;;;;;;;22.27;12.83;;;19.60;99.90;;;;;;5178393;27;20659;-69
2021/06/12 07:01:42;;;;;;;15.63;10.07;;;19.70;99.90;;;;;;5177556;27;20256;-70
2021/06/12 07:04:31;;;;;;;18.60;11.83;;;19.80;99.90;;;;;;5177415;27;20204;-70
2021/06/12 07:07:20;;;;;;;20.77;11.33;;;20.00;99.90;;;;;;5177778;27;20207;-69
2021/06/12 07:10:07;;;;;;;19.23;11.10;;;20.00;99.90;;;;;;5178320;27;20217;-70
2021/06/12 07:12:59;;;;;;;18.80;10.43;;;20.10;99.90;;;;;;5177767;27;20228;-69
2021/06/12 07:15:46;;;;;;;18.33;10.70;;;20.30;99.90;;;;;;5178123;27;20197;-69
2021/06/12 07:18:33;;;;;;;21.70;10.67;;;20.60;99.90;;;;;;5176840;27;20193;-68
2021/06/12 07:21:20;;;;;;;17.07;9.63;;;20.70;99.90;;;;;;5170549;27;20189;-68
2021/06/12 07:24:09;;;;;;;16.83;9.63;;;20.80;99.90;;;;;;5175829;27;20245;-68
2021/06/12 07:26:56;;;;;;;18.93;10.40;;;20.90;99.90;;;;;;5176885;27;20205;-68
2021/06/12 07:29:43;;;;;;;16.77;9.10;;;21.20;99.90;;;;;;5177572;27;20218;-68
2021/06/12 07:32:30;;;;;;;17.30;8.67;;;21.40;99.90;;;;;;5177003;27;20655;-68
2021/06/12 07:35:17;;;;;;;13.87;8.83;;;21.50;99.90;;;;;;5176886;27;20209;-68
2021/06/12 07:38:04;;;;;;;14.77;8.67;;;21.40;99.90;;;;;;5177021;27;20197;-68
2021/06/12 07:40:52;;;;;;;16.97;7.80;;;21.30;99.90;;;;;;5177163;27;20643;-68
2021/06/12 07:43:39;;;;;;;12.67;6.53;;;21.30;99.90;;;;;;5176938;27;20204;-68
2021/06/12 07:46:26;;;;;;;9.27;6.60;;;21.40;99.90;;;;;;5176941;27;20217;-68
2021/06/12 07:49:13;;;;;;;10.87;7.10;;;21.60;99.90;;;;;;5175504;27;20304;-68
2021/06/12 07:52:00;;;;;;;13.53;6.23;;;21.80;99.90;;;;;;5176392;27;20189;-69
2021/06/12 07:54:47;;;;;;;10.90;6.77;;;21.80;99.90;;;;;;5175701;27;20232;-68
2021/06/12 07:57:36;;;;;;;11.27;6.93;;;22.10;99.90;;;;;;5177225;27;20189;-68
2021/06/12 08:00:23;;;;;;;9.23;5.83;;;22.30;99.90;;;;;;5173884;27;20197;-68
2021/06/12 08:03:10;;;;;;;11.53;5.93;;;22.60;99.90;;;;;;5171031;27;20197;-68
2021/06/12 08:05:57;;;;;;;10.53;5.50;;;22.50;99.90;;;;;;5165425;27;20699;-69
2021/06/12 08:08:46;;;;;;;14.50;5.07;;;22.10;99.90;;;;;;5168360;27;20348;-69
2021/06/12 08:11:33;;;;;;;10.57;4.77;;;22.20;99.90;;;;;;5175840;27;20200;-69
2021/06/12 08:14:21;;;;;;;10.87;5.00;;;22.10;99.90;;;;;;5176285;27;20249;-70
2021/06/12 08:17:08;;;;;;;6.30;4.90;;;22.40;99.90;;;;;;5175841;27;20686;-69
2021/06/12 08:19:55;;;;;;;7.93;4.60;;;22.60;99.90;;;;;;5175380;27;20185;-69
2021/06/12 08:22:42;;;;;;;9.33;5.77;;;22.70;99.90;;;;;;5167096;27;20193;-70
2021/06/12 08:28:57;;;;;;;10.90;5.40;;;22.60;99.90;;;;;;5174837;27;20212;-69
2021/06/12 08:31:46;;;;;;;11.27;5.93;;;22.80;99.90;;;;;;5174380;27;20711;-69
2021/06/12 08:34:33;;;;;;;7.00;5.00;;;22.90;99.90;;;;;;5167544;27;20193;-69
2021/06/12 08:37:20;;;;;;;10.10;4.93;;;23.20;99.90;;;;;;5174645;27;20220;-69
2021/06/12 08:40:08;;;;;;;7.00;5.10;;;23.50;99.90;;;;;;5175241;27;20631;-69
2021/06/12 08:42:55;;;;;;;12.80;5.20;;;23.40;99.90;;;;;;5176287;27;20197;-70
2021/06/12 08:45:42;;;;;;;8.97;5.63;;;23.40;99.90;;;;;;5174588;27;20208;-70
2021/06/12 08:48:30;;;;;;;5.37;4.63;;;23.30;99.90;;;;;;5175710;27;20193;-70
2021/06/12 08:51:17;;;;;;;7.93;4.80;;;23.50;99.90;;;;;;5175738;27;20193;-69
2021/06/12 08:54:05;;;;;;;9.83;5.10;;;23.60;99.90;;;;;;5175263;27;20229;-69
2021/06/12 08:56:52;;;;;;;6.43;4.80;;;23.70;99.90;;;;;;5175071;27;20648;-69
2021/06/12 08:59:39;;;;;;;7.67;5.27;;;24.00;99.90;;;;;;5166002;27;20194;-70
2021/06/12 09:02:26;;;;;;;6.90;4.57;;;23.90;99.90;;;;;;5175095;27;20196;-70
2021/06/12 09:05:14;;;;;;;10.97;5.43;;;24.40;99.90;;;;;;5174905;27;20201;-69
2021/06/12 09:08:05;;;;;;;9.77;6.30;;;24.00;99.90;;;;;;5168901;27;20190;-70
2021/06/12 09:10:56;;;;;;;7.90;5.30;;;24.30;99.90;;;;;;5174692;27;20289;-68
2021/06/12 09:13:47;;;;;;;8.83;6.27;;;24.60;99.90;;;;;;5175500;27;20226;-69
2021/06/12 09:16:35;;;;;;;7.87;5.40;;;24.40;99.90;;;;;;5175294;27;20201;-69
2021/06/12 09:19:22;;;;;;;11.87;5.93;;;24.70;99.90;;;;;;5174252;27;20190;-69
2021/06/12 09:22:11;;;;;;;9.23;6.07;;;24.90;99.90;;;;;;5174846;27;20208;-70
2021/06/12 09:24:57;;;;;;;8.10;6.20;;;25.10;99.90;;;;;;5173978;27;20231;-70
2021/06/12 09:27:55;;;;;;;11.32;6.63;;;25.50;99.90;;;;;;5172512;27;20264;-70
2021/06/12 09:30:43;;;;;;;10.23;5.70;;;25.50;99.90;;;;;;5174272;27;20212;-70
2021/06/12 09:33:36;;;;;;;6.47;5.35;;;25.70;99.90;;;;;;5174945;27;20196;-70
2021/06/12 09:36:32;;;;;;;8.35;5.45;;;26.20;99.90;;;;;;5175071;27;20250;-70
2021/06/12 09:39:22;;;;;;;52.40;14.65;;;26.10;99.90;;;;;;5175022;27;20199;-69
2021/06/12 09:42:10;;;;;;;16.40;7.57;;;25.70;99.90;;;;;;5173653;27;20185;-70
2021/06/12 09:44:57;;;;;;;27.48;10.07;;;25.30;99.90;;;;;;5174450;27;20205;-69
2021/06/12 09:47:44;;;;;;;8.65;5.95;;;25.60;99.90;;;;;;5174925;27;20276;-68
2021/06/12 09:50:31;;;;;;;9.82;6.38;;;25.60;99.90;;;;;;5173474;27;20743;-69
2021/06/12 09:53:18;;;;;;;8.60;5.40;;;25.40;99.90;;;;;;5168533;27;20238;-70
2021/06/12 09:56:11;;;;;;;9.35;5.53;;;25.30;99.90;;;;;;5174228;27;20201;-70
2021/06/12 09:58:58;;;;;;;12.93;6.18;;;25.10;99.90;;;;;;5166990;27;20224;-69
2021/06/12 10:01:50;;;;;;;10.55;5.70;;;25.00;99.90;;;;;;5172969;27;20204;-70
2021/06/12 10:04:37;;;;;;;10.63;5.75;;;25.20;99.90;;;;;;5174515;27;20212;-70
2021/06/12 10:07:24;;;;;;;9.10;5.03;;;25.20;99.90;;;;;;5174911;27;20627;-69
2021/06/12 10:10:12;;;;;;;7.93;5.88;;;25.20;99.90;;;;;;5172659;27;20739;-70
2021/06/12 10:13:03;;;;;;;7.60;5.50;;;25.10;99.90;;;;;;5170504;27;20229;-69
2021/06/12 10:15:50;;;;;;;8.88;5.43;;;25.30;99.90;;;;;;5174267;27;20196;-70
2021/06/12 10:18:38;;;;;;;7.32;5.00;;;25.50;99.90;;;;;;5173016;27;20212;-69
2021/06/12 10:21:25;;;;;;;8.00;5.10;;;26.00;99.90;;;;;;5174954;27;20230;-70
2021/06/12 10:24:12;;;;;;;9.20;5.10;;;26.40;99.90;;;;;;5175152;27;20200;-69
2021/06/12 10:26:59;;;;;;;34.42;10.13;;;26.40;99.90;;;;;;5174651;27;20224;-70
2021/06/12 10:29:47;;;;;;;7.88;5.28;;;26.20;99.90;;;;;;5173395;27;20213;-70
2021/06/12 10:32:34;;;;;;;4.93;4.07;;;26.30;99.90;;;;;;5174433;27;20198;-69
2021/06/12 10:35:22;;;;;;;6.20;4.70;;;26.20;99.90;;;;;;5166677;27;20193;-70
2021/06/12 10:38:13;;;;;;;7.13;4.95;;;25.80;99.60;;;;;;5173297;27;20268;-70
2021/06/12 10:41:00;;;;;;;6.07;4.80;;;25.80;98.80;;;;;;5174022;27;20636;-70
2021/06/12 10:43:48;;;;;;;8.68;4.75;;;25.70;99.00;;;;;;5173167;27;20204;-70
2021/06/12 10:46:45;;;;;;;6.88;4.85;;;25.80;99.40;;;;;;5174754;27;20209;-70
2021/06/12 10:49:34;;;;;;;6.30;4.63;;;25.60;99.90;;;;;;5173165;27;20209;-70
2021/06/12 10:52:21;;;;;;;8.93;5.10;;;25.30;99.90;;;;;;5174179;27;20576;-70
2021/06/12 10:55:27;;;;;;;7.63;5.15;;;24.70;99.90;;;;;;5173762;27;20621;-70
2021/06/12 10:58:45;;;;;;;10.75;5.72;;;24.10;99.90;;;;;;5175733;27;20232;-69
2021/06/12 11:01:33;;;;;;;8.50;5.60;;;23.70;99.90;;;;;;5169881;27;20197;-71
2021/06/12 11:04:28;;;;;;;6.53;5.40;;;23.40;99.90;;;;;;5176191;27;20194;-70
2021/06/12 11:07:29;;;;;;;8.53;5.37;;;23.50;99.90;;;;;;5174916;27;20200;-70
2021/06/12 11:10:23;;;;;;;9.50;5.47;;;23.60;99.90;;;;;;5174375;27;20208;-70
2021/06/12 11:13:19;;;;;;;7.30;5.07;;;23.80;99.90;;;;;;5176450;27;20186;-70
2021/06/12 11:16:21;;;;;;;7.73;5.03;;;24.60;99.90;;;;;;5177273;27;20197;-69
2021/06/12 11:19:31;;;;;;;9.70;4.70;;;25.50;99.90;;;;;;5161670;27;20539;-70
2021/06/12 11:22:32;;;;;;;10.00;4.82;;;25.90;99.70;;;;;;5177361;27;20189;-69
2021/06/12 11:25:40;;;;;;;10.25;4.60;;;26.00;99.90;;;;;;5177949;27;20276;-69
2021/06/12 11:28:40;;;;;;;10.27;4.47;;;26.10;98.30;;;;;;5176508;27;20201;-66
2021/06/12 11:31:29;;;;;;;6.80;4.72;;;25.90;97.90;;;;;;5177400;27;20734;-66
2021/06/12 11:34:21;;;;;;;7.28;4.25;;;25.90;97.60;;;;;;5177048;27;20208;-66
2021/06/12 11:37:18;;;;;;;6.03;4.55;;;25.50;97.10;;;;;;5177766;27;20213;-66
2021/06/12 11:40:06;;;;;;;6.07;4.18;;;25.40;98.00;;;;;;5176195;27;20181;-65
2021/06/12 11:42:53;;;;;;;6.15;4.53;;;25.80;98.80;;;;;;5177107;27;20212;-66
2021/06/12 11:45:40;;;;;;;6.30;4.82;;;26.20;96.60;;;;;;5176720;27;20196;-66
2021/06/12 11:48:27;;;;;;;7.63;4.82;;;26.50;97.80;;;;;;5176840;27;20215;-66
2021/06/12 11:51:16;;;;;;;5.93;4.93;;;26.80;97.90;;;;;;5176018;27;20193;-66
2021/06/12 11:54:09;;;;;;;7.50;5.32;;;27.40;97.30;;;;;;5176074;27;20608;-66
2021/06/12 11:56:58;;;;;;;6.97;5.53;;;27.50;95.40;;;;;;5176413;27;20196;-65
2021/06/12 11:59:45;;;;;;;9.55;5.70;;;27.10;93.80;;;;;;5171585;27;20193;-66
2021/06/12 12:02:32;;;;;;;9.63;5.53;;;26.80;95.10;;;;;;5171445;27;20265;-65
2021/06/12 12:05:19;;;;;;;9.20;5.80;;;26.60;97.00;;;;;;5176274;27;20193;-66
2021/06/12 12:08:08;;;;;;;7.32;5.07;;;27.10;95.30;;;;;;5167607;27;20193;-65
2021/06/12 12:10:56;;;;;;;7.10;4.50;;;27.20;94.20;;;;;;5167765;27;20205;-66
2021/06/12 12:13:43;;;;;;;4.88;4.40;;;26.90;91.60;;;;;;5176291;27;20683;-66
2021/06/12 12:16:30;;;;;;;8.30;5.20;;;26.90;92.20;;;;;;5174485;27;20197;-66
2021/06/12 12:19:17;;;;;;;10.02;5.95;;;26.60;93.60;;;;;;5174704;27;20674;-66
2021/06/12 12:22:05;;;;;;;11.20;5.22;;;26.80;97.20;;;;;;5175382;27;20238;-66
2021/06/12 12:24:56;;;;;;;8.07;6.43;;;27.30;94.60;;;;;;5176809;27;20583;-65
2021/06/12 12:27:45;;;;;;;10.48;6.55;;;27.10;94.50;;;;;;5167400;27;20193;-66
2021/06/12 12:30:32;;;;;;;10.40;5.85;;;27.30;94.50;;;;;;5176721;27;20572;-65
2021/06/12 12:33:19;;;;;;;10.40;5.20;;;27.60;92.60;;;;;;5176292;27;20201;-65
2021/06/12 12:36:07;;;;;;;9.68;4.65;;;27.90;93.40;;;;;;5176505;27;20189;-69
2021/06/12 12:38:55;;;;;;;9.15;5.32;;;27.80;91.50;;;;;;5175082;27;20245;-71
2021/06/12 12:41:52;;;;;;;8.45;4.53;;;27.60;91.30;;;;;;5175747;27;20197;-70
2021/06/12 12:44:41;;;;;;;7.32;5.30;;;27.30;92.20;;;;;;5175241;27;20189;-70
2021/06/12 12:47:28;;;;;;;8.35;4.80;;;27.00;91.80;;;;;;5167826;27;20227;-69
2021/06/12 12:50:15;;;;;;;6.68;3.97;;;27.10;92.40;;;;;;5174933;27;20209;-69
2021/06/12 12:53:04;;;;;;;6.25;3.92;;;26.90;91.30;;;;;;5176315;27;20193;-70
2021/06/12 12:56:03;;;;;;;5.00;4.40;;;26.80;90.80;;;;;;5174482;27;20221;-70
2021/06/12 12:58:51;;;;;;;5.78;4.03;;;26.70;91.60;;;;;;5172726;27;20276;-70
2021/06/12 13:01:49;;;;;;;3.70;3.30;;;26.70;90.90;;;;;;5169137;27;20287;-69
2021/06/12 13:04:37;;;;;;;5.25;3.72;;;26.80;90.20;;;;;;5175478;27;20189;-70
2021/06/12 13:07:24;;;;;;;5.68;4.00;;;26.20;91.10;;;;;;5174119;27;20185;-70
2021/06/12 13:10:14;;;;;;;10.35;4.07;;;26.30;91.40;;;;;;5173705;27;20208;-69
2021/06/12 13:13:02;;;;;;;4.68;3.83;;;26.10;91.60;;;;;;5158518;27;20227;-70
2021/06/12 13:15:56;;;;;;;8.77;4.03;;;25.70;92.30;;;;;;5169210;27;20195;-69
2021/06/12 13:18:44;;;;;;;3.92;3.47;;;25.20;92.90;;;;;;5175377;27;20569;-70
2021/06/12 13:21:31;;;;;;;6.57;3.83;;;24.80;93.80;;;;;;5175196;27;20197;-70
2021/06/12 13:24:18;;;;;;;5.72;3.45;;;24.60;93.90;;;;;;5174191;27;20204;-70
2021/06/12 13:27:05;;;;;;;6.47;3.58;;;24.50;94.00;;;;;;5174717;27;20193;-70
2021/06/12 13:29:52;;;;;;;6.70;3.33;;;24.30;94.40;;;;;;5174342;27;20208;-70
2021/06/12 13:32:40;;;;;;;5.43;3.78;;;24.10;95.90;;;;;;5173823;27;20189;-70
2021/06/12 13:35:29;;;;;;;4.90;3.87;;;24.00;96.00;;;;;;5174403;27;20275;-69
2021/06/12 13:38:18;;;;;;;4.93;3.70;;;23.60;96.10;;;;;;5168554;27;20197;-69
2021/06/12 13:41:06;;;;;;;4.73;3.80;;;23.60;96.80;;;;;;5174017;27;20193;-70
2021/06/12 13:43:53;;;;;;;7.37;3.90;;;23.30;97.30;;;;;;5174325;27;20284;-70
2021/06/12 13:46:40;;;;;;;6.73;3.97;;;23.30;98.30;;;;;;5175053;27;20223;-71
2021/06/12 13:49:27;;;;;;;8.50;4.80;;;22.70;99.90;;;;;;5173028;27;20209;-71
2021/06/12 13:52:16;;;;;;;7.80;6.60;;;22.00;99.90;;;;;;5173836;27;20557;-70
2021/06/12 13:55:08;;;;;;;11.97;8.43;;;21.40;99.90;;;;;;5166969;27;20232;-70
2021/06/12 13:57:57;;;;;;;11.17;6.37;;;20.70;99.90;;;;;;5165767;27;20198;-71
2021/06/12 14:00:45;;;;;;;7.17;5.23;;;19.70;99.90;;;;;;5153553;27;20201;-70
2021/06/12 14:03:32;;;;;;;6.83;4.27;;;19.00;99.90;;;;;;5154892;27;20670;-70
2021/06/12 14:06:20;;;;;;;9.07;4.30;;;18.60;99.90;;;;;;5173709;27;20591;-70
2021/06/12 14:09:08;;;;;;;7.40;4.77;;;18.40;99.90;;;;;;5174406;27;20203;-70
2021/06/12 14:11:56;;;;;;;7.70;4.90;;;18.40;99.90;;;;;;5175078;27;20283;-70
2021/06/12 14:14:43;;;;;;;9.33;4.73;;;18.60;99.90;;;;;;5174004;27;20252;-70
2021/06/12 14:17:30;;;;;;;7.80;5.23;;;18.60;99.90;;;;;;5173243;27;20206;-69
2021/06/12 14:20:17;;;;;;;9.00;5.83;;;18.60;99.90;;;;;;5173413;27;20197;-70
2021/06/12 14:23:04;;;;;;;8.23;6.03;;;18.60;99.90;;;;;;5167401;27;20198;-69
2021/06/12 14:25:53;;;;;;;13.33;6.80;;;18.50;99.90;;;;;;5174981;27;20204;-69
2021/06/12 14:28:40;;;;;;;11.23;6.60;;;18.60;99.90;;;;;;5174100;27;20200;-69